sensor_id;sensor_type;location;lat;lon;timestamp;pressure;altitude;pressure_sealevel;temperature;humidity
70343;BME280;57767;42.068;24.752;2023-09-19T00:00:59;99297.78;;;17.51;61.75
70343;BME280;57767;42.068;24.752;2023-09-19T00:02:02;99303.69;;;17.53;61.19
70343;BME280;57767;42.068;24.752;2023-09-19T00:03:06;99299.41;;;17.52;61.12
70343;BME280;57767;42.068;24.752;2023-09-19T00:04:08;99302.06;;;17.52;61.83
70343;BME280;57767;42.068;24.752;2023-09-19T00:05:11;99303.13;;;17.51;62.09
70343;BME280;57767;42.068;24.752;2023-09-19T00:06:13;99295.59;;;17.48;61.42
70343;BME280;57767;42.068;24.752;2023-09-19T00:07:15;99294.00;;;17.47;61.32
70343;BME280;57767;42.068;24.752;2023-09-19T00:08:20;99298.53;;;17.47;61.23
70343;BME280;57767;42.068;24.752;2023-09-19T00:09:26;99294.47;;;17.44;60.86
70343;BME280;57767;42.068;24.752;2023-09-19T00:10:29;99285.88;;;17.42;61.28
70343;BME280;57767;42.068;24.752;2023-09-19T00:11:32;99289.94;;;17.45;61.41
70343;BME280;57767;42.068;24.752;2023-09-19T00:12:35;99290.75;;;17.45;61.27
70343;BME280;57767;42.068;24.752;2023-09-19T00:13:37;99284.75;;;17.38;61.49
70343;BME280;57767;42.068;24.752;2023-09-19T00:14:39;99285.56;;;17.39;62.30
70343;BME280;57767;42.068;24.752;2023-09-19T00:15:46;99288.69;;;17.36;62.15
70343;BME280;57767;42.068;24.752;2023-09-19T00:16:51;99287.34;;;17.33;62.68
70343;BME280;57767;42.068;24.752;2023-09-19T00:17:53;99295.59;;;17.32;62.88
70343;BME280;57767;42.068;24.752;2023-09-19T00:18:55;99284.56;;;17.28;63.04
70343;BME280;57767;42.068;24.752;2023-09-19T00:19:57;99294.66;;;17.26;63.25
70343;BME280;57767;42.068;24.752;2023-09-19T00:20:58;99287.63;;;17.20;62.85
70343;BME280;57767;42.068;24.752;2023-09-19T00:22:01;99286.31;;;17.23;63.82
70343;BME280;57767;42.068;24.752;2023-09-19T00:23:02;99289.25;;;17.21;63.51
70343;BME280;57767;42.068;24.752;2023-09-19T00:24:09;99283.94;;;17.21;63.21
70343;BME280;57767;42.068;24.752;2023-09-19T00:25:11;99289.25;;;17.21;62.53
70343;BME280;57767;42.068;24.752;2023-09-19T00:26:13;99283.94;;;17.21;62.75
70343;BME280;57767;42.068;24.752;2023-09-19T00:27:15;99286.25;;;17.17;62.88
70343;BME280;57767;42.068;24.752;2023-09-19T00:28:17;99277.44;;;17.17;62.51
70343;BME280;57767;42.068;24.752;2023-09-19T00:29:21;99270.97;;;17.13;62.88
70343;BME280;57767;42.068;24.752;2023-09-19T00:30:24;99277.91;;;17.14;62.79
70343;BME280;57767;42.068;24.752;2023-09-19T00:31:26;99274.09;;;17.10;62.90
70343;BME280;57767;42.068;24.752;2023-09-19T00:32:28;99280.50;;;17.09;63.06
70343;BME280;57767;42.068;24.752;2023-09-19T00:33:33;99281.31;;;17.09;63.38
70343;BME280;57767;42.068;24.752;2023-09-19T00:34:35;99279.94;;;17.07;63.46
70343;BME280;57767;42.068;24.752;2023-09-19T00:35:37;99282.72;;;17.00;64.04
70343;BME280;57767;42.068;24.752;2023-09-19T00:36:38;99275.94;;;16.93;63.74
70343;BME280;57767;42.068;24.752;2023-09-19T00:37:41;99280.00;;;16.95;64.10
70343;BME280;57767;42.068;24.752;2023-09-19T00:38:42;99280.00;;;16.95;64.38
70343;BME280;57767;42.068;24.752;2023-09-19T00:39:46;99276.50;;;16.95;64.24
70343;BME280;57767;42.068;24.752;2023-09-19T00:40:48;99274.66;;;16.95;64.17
70343;BME280;57767;42.068;24.752;2023-09-19T00:41:50;99242.59;;;16.78;63.89
70343;BME280;57767;42.068;24.752;2023-09-19T00:42:52;99273.03;;;16.94;64.20
70343;BME280;57767;42.068;24.752;2023-09-19T00:43:58;99274.78;;;16.89;64.40
70343;BME280;57767;42.068;24.752;2023-09-19T00:45:01;99273.91;;;16.83;64.46
70343;BME280;57767;42.068;24.752;2023-09-19T00:46:04;99272.75;;;16.79;64.58
70343;BME280;57767;42.068;24.752;2023-09-19T00:47:08;99272.97;;;16.77;64.56
70343;BME280;57767;42.068;24.752;2023-09-19T00:48:11;99274.59;;;16.78;64.93
70343;BME280;57767;42.068;24.752;2023-09-19T00:49:14;99271.22;;;16.83;64.39
70343;BME280;57767;42.068;24.752;2023-09-19T00:50:22;99274.69;;;16.83;65.10
70343;BME280;57767;42.068;24.752;2023-09-19T00:51:25;99269.38;;;16.83;64.71
70343;BME280;57767;42.068;24.752;2023-09-19T00:52:26;99274.13;;;16.81;65.11
70343;BME280;57767;42.068;24.752;2023-09-19T00:53:30;99271.22;;;16.83;63.96
70343;BME280;57767;42.068;24.752;2023-09-19T00:54:33;99277.38;;;16.83;64.63
70343;BME280;57767;42.068;24.752;2023-09-19T00:55:36;99270.41;;;16.82;64.97
70343;BME280;57767;42.068;24.752;2023-09-19T00:56:38;99271.34;;;16.76;65.01
70343;BME280;57767;42.068;24.752;2023-09-19T00:57:41;99281.25;;;16.64;64.86
70343;BME280;57767;42.068;24.752;2023-09-19T00:58:43;99267.78;;;16.59;64.88
70343;BME280;57767;42.068;24.752;2023-09-19T00:59:48;99273.50;;;16.51;65.25
70343;BME280;57767;42.068;24.752;2023-09-19T01:00:52;99267.75;;;16.31;65.67
70343;BME280;57767;42.068;24.752;2023-09-19T01:01:56;99276.31;;;16.21;66.33
70343;BME280;57767;42.068;24.752;2023-09-19T01:02:58;99277.50;;;16.13;66.58
70343;BME280;57767;42.068;24.752;2023-09-19T01:04:00;99271.00;;;16.09;66.88
70343;BME280;57767;42.068;24.752;2023-09-19T01:05:02;99268.91;;;16.11;66.72
70343;BME280;57767;42.068;24.752;2023-09-19T01:06:06;99273.09;;;16.19;67.24
70343;BME280;57767;42.068;24.752;2023-09-19T01:07:09;99278.31;;;16.14;67.06
70343;BME280;57767;42.068;24.752;2023-09-19T01:08:10;99280.97;;;16.14;67.18
70343;BME280;57767;42.068;24.752;2023-09-19T01:09:15;99276.91;;;16.11;67.03
70343;BME280;57767;42.068;24.752;2023-09-19T01:10:18;99271.81;;;16.10;67.06
70343;BME280;57767;42.068;24.752;2023-09-19T01:12:35;99269.03;;;16.17;66.28
70343;BME280;57767;42.068;24.752;2023-09-19T01:13:58;99280.16;;;16.13;66.24
70343;BME280;57767;42.068;24.752;2023-09-19T01:15:12;99278.78;;;16.11;66.77
70343;BME280;57767;42.068;24.752;2023-09-19T01:16:32;99276.69;;;16.01;66.30
70343;BME280;57767;42.068;24.752;2023-09-19T01:17:53;99276.56;;;15.85;66.65
70343;BME280;57767;42.068;24.752;2023-09-19T01:21:46;99280.75;;;15.69;68.53
70343;BME280;57767;42.068;24.752;2023-09-19T01:23:20;99270.44;;;15.61;68.69
70343;BME280;57767;42.068;24.752;2023-09-19T01:25:05;99276.88;;;15.53;68.80
70343;BME280;57767;42.068;24.752;2023-09-19T01:26:23;99282.78;;;15.44;69.55
70343;BME280;57767;42.068;24.752;2023-09-19T01:30:35;99270.13;;;15.27;69.09
70343;BME280;57767;42.068;24.752;2023-09-19T01:31:39;99274.19;;;15.30;69.48
70343;BME280;57767;42.068;24.752;2023-09-19T01:32:44;99276.13;;;15.34;69.42
70343;BME280;57767;42.068;24.752;2023-09-19T01:34:00;99271.63;;;15.35;69.78
70343;BME280;57767;42.068;24.752;2023-09-19T01:35:02;99266.53;;;15.33;69.49
70343;BME280;57767;42.068;24.752;2023-09-19T01:36:05;99268.75;;;15.36;69.16
70343;BME280;57767;42.068;24.752;2023-09-19T01:37:07;99274.56;;;15.45;68.72
70343;BME280;57767;42.068;24.752;2023-09-19T01:38:09;99277.31;;;15.38;69.72
70343;BME280;57767;42.068;24.752;2023-09-19T01:39:13;99275.31;;;15.34;70.00
70343;BME280;57767;42.068;24.752;2023-09-19T01:40:19;99273.16;;;15.31;70.04
70343;BME280;57767;42.068;24.752;2023-09-19T01:41:38;99271.03;;;15.33;69.60
70343;BME280;57767;42.068;24.752;2023-09-19T01:42:45;99272.22;;;15.37;69.82
70343;BME280;57767;42.068;24.752;2023-09-19T01:43:50;99264.00;;;15.38;69.86
70343;BME280;57767;42.068;24.752;2023-09-19T01:46:37;99271.44;;;15.48;69.20
70343;BME280;57767;42.068;24.752;2023-09-19T01:51:42;99267.78;;;15.61;69.20
70343;BME280;57767;42.068;24.752;2023-09-19T01:53:36;99258.28;;;15.65;69.49
70343;BME280;57767;42.068;24.752;2023-09-19T01:54:51;99256.22;;;15.67;69.07
70343;BME280;57767;42.068;24.752;2023-09-19T01:55:54;99257.03;;;15.67;68.97
70343;BME280;57767;42.068;24.752;2023-09-19T01:57:20;99251.22;;;15.70;68.49
70343;BME280;57767;42.068;24.752;2023-09-19T01:59:53;99250.53;;;15.75;68.77
70343;BME280;57767;42.068;24.752;2023-09-19T02:01:00;99254.13;;;15.81;68.28
70343;BME280;57767;42.068;24.752;2023-09-19T02:02:03;99249.03;;;15.79;68.47
70343;BME280;57767;42.068;24.752;2023-09-19T02:03:07;99265.13;;;15.84;68.51
70343;BME280;57767;42.068;24.752;2023-09-19T02:04:10;99248.81;;;15.81;68.31
70343;BME280;57767;42.068;24.752;2023-09-19T02:05:12;99256.09;;;15.85;68.28
70343;BME280;57767;42.068;24.752;2023-09-19T02:06:15;99256.66;;;15.87;68.58
70343;BME280;57767;42.068;24.752;2023-09-19T02:07:17;99247.28;;;15.85;68.33
70343;BME280;57767;42.068;24.752;2023-09-19T02:08:20;99259.09;;;15.89;68.88
70343;BME280;57767;42.068;24.752;2023-09-19T02:09:22;99259.91;;;15.89;68.31
70343;BME280;57767;42.068;24.752;2023-09-19T02:10:24;99258.28;;;15.88;67.03
70343;BME280;57767;42.068;24.752;2023-09-19T02:11:26;99255.16;;;15.91;66.76
70343;BME280;57767;42.068;24.752;2023-09-19T02:12:27;99265.91;;;15.96;66.58
70343;BME280;57767;42.068;24.752;2023-09-19T02:13:29;99264.31;;;15.95;66.96
70343;BME280;57767;42.068;24.752;2023-09-19T02:14:33;99267.53;;;15.97;66.89
70343;BME280;57767;42.068;24.752;2023-09-19T02:15:35;99268.72;;;16.01;66.89
70343;BME280;57767;42.068;24.752;2023-09-19T02:16:37;99255.97;;;16.03;66.74
70343;BME280;57767;42.068;24.752;2023-09-19T02:17:39;99264.06;;;16.08;66.51
70343;BME280;57767;42.068;24.752;2023-09-19T02:18:41;99254.56;;;16.12;66.37
70343;BME280;57767;42.068;24.752;2023-09-19T02:19:42;99257.81;;;16.15;66.34
70343;BME280;57767;42.068;24.752;2023-09-19T02:20:44;99244.84;;;16.06;66.61
70343;BME280;57767;42.068;24.752;2023-09-19T02:21:47;99252.13;;;16.11;66.03
70343;BME280;57767;42.068;24.752;2023-09-19T02:22:50;99251.91;;;16.12;66.80
70343;BME280;57767;42.068;24.752;2023-09-19T02:23:52;99252.94;;;16.11;66.71
70343;BME280;57767;42.068;24.752;2023-09-19T02:24:53;99248.41;;;16.12;65.98
70343;BME280;57767;42.068;24.752;2023-09-19T02:25:55;99251.66;;;16.14;65.80
70343;BME280;57767;42.068;24.752;2023-09-19T02:26:59;99248.41;;;16.12;65.88
70343;BME280;57767;42.068;24.752;2023-09-19T02:28:05;99251.66;;;16.14;65.95
70343;BME280;57767;42.068;24.752;2023-09-19T02:29:07;99244.94;;;16.11;65.99
70343;BME280;57767;42.068;24.752;2023-09-19T02:30:09;99254.09;;;16.16;66.01
70343;BME280;57767;42.068;24.752;2023-09-19T02:31:10;99249.81;;;16.15;66.25
70343;BME280;57767;42.068;24.752;2023-09-19T02:32:12;99250.03;;;16.13;66.68
70343;BME280;57767;42.068;24.752;2023-09-19T02:33:14;99249.22;;;16.12;66.66
70343;BME280;57767;42.068;24.752;2023-09-19T02:34:16;99240.88;;;16.09;66.55
70343;BME280;57767;42.068;24.752;2023-09-19T02:35:18;99252.63;;;16.08;66.48
70343;BME280;57767;42.068;24.752;2023-09-19T02:36:22;99244.03;;;16.06;66.73
70343;BME280;57767;42.068;24.752;2023-09-19T02:37:25;99253.88;;;16.05;67.22
70343;BME280;57767;42.068;24.752;2023-09-19T02:38:26;99256.78;;;16.04;67.72
70343;BME280;57767;42.068;24.752;2023-09-19T02:39:28;99260.94;;;16.00;67.35
70343;BME280;57767;42.068;24.752;2023-09-19T02:40:30;99250.53;;;15.98;67.77
70343;BME280;57767;42.068;24.752;2023-09-19T02:41:31;99256.09;;;15.85;68.08
70343;BME280;57767;42.068;24.752;2023-09-19T02:42:34;99256.00;;;15.80;67.84
70343;BME280;57767;42.068;24.752;2023-09-19T02:43:36;99246.47;;;15.84;67.82
70343;BME280;57767;42.068;24.752;2023-09-19T02:44:38;99253.66;;;15.84;68.13
70343;BME280;57767;42.068;24.752;2023-09-19T02:45:39;99248.00;;;15.80;68.65
70343;BME280;57767;42.068;24.752;2023-09-19T02:46:41;99252.06;;;15.83;67.86
70343;BME280;57767;42.068;24.752;2023-09-19T02:47:47;99250.06;;;15.78;67.97
70343;BME280;57767;42.068;24.752;2023-09-19T02:48:49;99247.19;;;15.68;68.31
70343;BME280;57767;42.068;24.752;2023-09-19T02:49:50;99253.53;;;15.55;69.11
70343;BME280;57767;42.068;24.752;2023-09-19T02:50:52;99249.22;;;15.43;69.06
70343;BME280;57767;42.068;24.752;2023-09-19T02:51:54;99253.72;;;15.42;69.19
70343;BME280;57767;42.068;24.752;2023-09-19T02:52:56;99252.78;;;15.36;69.59
70343;BME280;57767;42.068;24.752;2023-09-19T02:54:00;99262.84;;;15.34;69.65
70343;BME280;57767;42.068;24.752;2023-09-19T02:55:05;99251.28;;;15.29;69.80
70343;BME280;57767;42.068;24.752;2023-09-19T02:56:10;99249.53;;;15.34;69.80
70343;BME280;57767;42.068;24.752;2023-09-19T02:57:14;99257.66;;;15.39;69.94
70343;BME280;57767;42.068;24.752;2023-09-19T02:58:18;99251.75;;;15.37;69.92
70343;BME280;57767;42.068;24.752;2023-09-19T02:59:21;99258.69;;;15.38;69.71
70343;BME280;57767;42.068;24.752;2023-09-19T03:00:23;99240.06;;;15.38;69.30
70343;BME280;57767;42.068;24.752;2023-09-19T03:01:25;99240.66;;;15.40;69.62
70343;BME280;57767;42.068;24.752;2023-09-19T03:02:28;99225.81;;;15.33;69.77
70343;BME280;57767;42.068;24.752;2023-09-19T03:03:30;99245.16;;;15.52;69.57
70343;BME280;57767;42.068;24.752;2023-09-19T03:04:32;99244.13;;;15.53;69.46
70343;BME280;57767;42.068;24.752;2023-09-19T03:05:34;99243.72;;;15.56;68.99
70343;BME280;57767;42.068;24.752;2023-09-19T03:06:36;99244.53;;;15.56;69.11
70343;BME280;57767;42.068;24.752;2023-09-19T03:07:39;99243.72;;;15.56;69.61
70343;BME280;57767;42.068;24.752;2023-09-19T03:08:41;99241.88;;;15.56;69.04
70343;BME280;57767;42.068;24.752;2023-09-19T03:09:43;99242.41;;;15.58;69.14
70343;BME280;57767;42.068;24.752;2023-09-19T03:10:46;99243.59;;;15.62;69.32
70343;BME280;57767;42.068;24.752;2023-09-19T03:11:49;99243.34;;;15.64;69.26
70343;BME280;57767;42.068;24.752;2023-09-19T03:12:51;99247.66;;;15.65;68.76
70343;BME280;57767;42.068;24.752;2023-09-19T03:13:53;99245.22;;;15.63;68.66
70343;BME280;57767;42.068;24.752;2023-09-19T03:14:55;99249.03;;;15.67;68.11
70343;BME280;57767;42.068;24.752;2023-09-19T03:15:57;99250.06;;;15.66;68.41
70343;BME280;57767;42.068;24.752;2023-09-19T03:16:59;99241.88;;;15.68;68.68
70343;BME280;57767;42.068;24.752;2023-09-19T03:18:01;99239.06;;;15.63;68.82
70343;BME280;57767;42.068;24.752;2023-09-19T03:19:03;99235.25;;;15.59;68.56
70343;BME280;57767;42.068;24.752;2023-09-19T03:20:05;99239.44;;;15.66;68.65
70343;BME280;57767;42.068;24.752;2023-09-19T03:21:10;99246.03;;;15.64;69.11
70343;BME280;57767;42.068;24.752;2023-09-19T03:22:14;99237.44;;;15.62;69.05
70343;BME280;57767;42.068;24.752;2023-09-19T03:23:17;99236.41;;;15.63;68.64
70343;BME280;57767;42.068;24.752;2023-09-19T03:24:18;99240.25;;;15.67;68.06
70343;BME280;57767;42.068;24.752;2023-09-19T03:25:21;99241.88;;;15.68;68.26
70343;BME280;57767;42.068;24.752;2023-09-19T03:26:24;99239.06;;;15.63;68.52
70343;BME280;57767;42.068;24.752;2023-09-19T03:27:28;99235.16;;;15.65;68.31
70343;BME280;57767;42.068;24.752;2023-09-19T03:28:33;99235.16;;;15.65;68.16
70343;BME280;57767;42.068;24.752;2023-09-19T03:29:35;99240.69;;;15.64;68.00
70343;BME280;57767;42.068;24.752;2023-09-19T03:30:37;99242.09;;;15.66;67.98
70343;BME280;57767;42.068;24.752;2023-09-19T03:31:40;99232.13;;;15.62;68.43
70343;BME280;57767;42.068;24.752;2023-09-19T03:32:48;99236.63;;;15.61;68.70
70343;BME280;57767;42.068;24.752;2023-09-19T03:33:52;99232.59;;;15.59;69.17
70343;BME280;57767;42.068;24.752;2023-09-19T03:34:53;99240.69;;;15.64;68.52
70343;BME280;57767;42.068;24.752;2023-09-19T03:35:55;99231.44;;;15.55;68.49
70343;BME280;57767;42.068;24.752;2023-09-19T03:36:59;99234.69;;;15.57;68.76
70343;BME280;57767;42.068;24.752;2023-09-19T03:38:03;99244.41;;;15.63;68.92
70343;BME280;57767;42.068;24.752;2023-09-19T03:39:05;99239.66;;;15.65;68.52
70343;BME280;57767;42.068;24.752;2023-09-19T03:40:08;99234.91;;;15.67;68.55
70343;BME280;57767;42.068;24.752;2023-09-19T03:41:11;99235.72;;;15.67;68.22
70343;BME280;57767;42.068;24.752;2023-09-19T03:42:16;99238.16;;;15.69;68.30
70343;BME280;57767;42.068;24.752;2023-09-19T03:43:17;99244.03;;;15.71;67.99
70343;BME280;57767;42.068;24.752;2023-09-19T03:44:19;99234.69;;;15.68;68.08
70343;BME280;57767;42.068;24.752;2023-09-19T03:45:21;99239.44;;;15.66;68.03
70343;BME280;57767;42.068;24.752;2023-09-19T03:46:22;99248.31;;;15.72;68.14
70343;BME280;57767;42.068;24.752;2023-09-19T03:47:24;99240.56;;;15.70;68.02
70343;BME280;57767;42.068;24.752;2023-09-19T03:48:26;99238.97;;;15.69;68.01
70343;BME280;57767;42.068;24.752;2023-09-19T03:49:27;99245.34;;;15.68;67.68
70343;BME280;57767;42.068;24.752;2023-09-19T03:50:29;99247.28;;;15.73;67.82
70343;BME280;57767;42.068;24.752;2023-09-19T03:51:31;99246.72;;;15.71;67.94
70343;BME280;57767;42.068;24.752;2023-09-19T03:52:33;99249.94;;;15.73;67.86
70343;BME280;57767;42.068;24.752;2023-09-19T03:53:35;99252.63;;;15.73;67.40
70343;BME280;57767;42.068;24.752;2023-09-19T03:54:36;99248.56;;;15.70;67.44
70343;BME280;57767;42.068;24.752;2023-09-19T03:55:38;99252.63;;;15.73;66.86
70343;BME280;57767;42.068;24.752;2023-09-19T03:56:42;99242.19;;;15.71;66.68
70343;BME280;57767;42.068;24.752;2023-09-19T03:57:48;99247.28;;;15.73;66.69
70343;BME280;57767;42.068;24.752;2023-09-19T03:58:49;99253.19;;;15.75;66.51
70343;BME280;57767;42.068;24.752;2023-09-19T03:59:51;99250.31;;;15.76;66.74
70343;BME280;57767;42.068;24.752;2023-09-19T04:00:57;99251.47;;;15.81;66.66
70343;BME280;57767;42.068;24.752;2023-09-19T04:01:59;99242.09;;;15.78;66.74
70343;BME280;57767;42.068;24.752;2023-09-19T04:03:01;99251.25;;;15.82;66.69
70343;BME280;57767;42.068;24.752;2023-09-19T04:04:07;99246.72;;;15.83;66.34
70343;BME280;57767;42.068;24.752;2023-09-19T04:05:14;99253.91;;;15.82;66.45
70343;BME280;57767;42.068;24.752;2023-09-19T04:06:16;99248.59;;;15.82;66.64
70343;BME280;57767;42.068;24.752;2023-09-19T04:07:19;99250.31;;;15.76;66.43
70343;BME280;57767;42.068;24.752;2023-09-19T04:08:24;99245.66;;;15.72;67.31
70343;BME280;57767;42.068;24.752;2023-09-19T04:09:25;99251.81;;;15.72;67.14
70343;BME280;57767;42.068;24.752;2023-09-19T04:10:27;99251.00;;;15.72;67.35
70343;BME280;57767;42.068;24.752;2023-09-19T04:11:30;99251.47;;;15.69;67.77
70343;BME280;57767;42.068;24.752;2023-09-19T04:12:32;99262.13;;;15.69;67.60
70343;BME280;57767;42.068;24.752;2023-09-19T04:13:34;99254.94;;;15.58;67.87
70343;BME280;57767;42.068;24.752;2023-09-19T04:14:36;99254.78;;;15.53;67.88
70343;BME280;57767;42.068;24.752;2023-09-19T04:15:37;99250.13;;;15.36;68.71
70343;BME280;57767;42.068;24.752;2023-09-19T04:16:39;99260.97;;;15.23;69.24
70343;BME280;57767;42.068;24.752;2023-09-19T04:17:41;99252.75;;;15.13;69.37
70343;BME280;57767;42.068;24.752;2023-09-19T04:18:43;99265.78;;;15.03;70.11
70343;BME280;57767;42.068;24.752;2023-09-19T04:19:44;99256.41;;;15.00;70.18
70343;BME280;57767;42.068;24.752;2023-09-19T04:20:49;99255.38;;;15.01;70.43
70343;BME280;57767;42.068;24.752;2023-09-19T04:21:50;99266.00;;;15.01;70.22
70343;BME280;57767;42.068;24.752;2023-09-19T04:22:52;99254.78;;;14.99;70.52
70343;BME280;57767;42.068;24.752;2023-09-19T04:23:54;99264.38;;;15.00;70.72
70343;BME280;57767;42.068;24.752;2023-09-19T04:24:55;99261.81;;;14.94;71.15
70343;BME280;57767;42.068;24.752;2023-09-19T04:25:58;99251.63;;;14.91;71.30
70343;BME280;57767;42.068;24.752;2023-09-19T04:27:00;99272.91;;;14.91;71.58
70343;BME280;57767;42.068;24.752;2023-09-19T04:28:01;99269.22;;;14.92;71.46
70343;BME280;57767;42.068;24.752;2023-09-19T04:29:03;99229.28;;;14.80;71.71
70343;BME280;57767;42.068;24.752;2023-09-19T04:30:06;99261.72;;;15.00;71.47
70343;BME280;57767;42.068;24.752;2023-09-19T04:31:15;99262.09;;;15.04;71.26
70343;BME280;57767;42.068;24.752;2023-09-19T04:32:18;99260.00;;;15.06;71.83
70343;BME280;57767;42.068;24.752;2023-09-19T04:33:19;99255.25;;;15.08;71.93
70343;BME280;57767;42.068;24.752;2023-09-19T04:34:21;99249.50;;;15.11;71.44
70343;BME280;57767;42.068;24.752;2023-09-19T04:35:23;99253.78;;;15.12;71.48
70343;BME280;57767;42.068;24.752;2023-09-19T04:36:24;99254.03;;;15.22;71.10
70343;BME280;57767;42.068;24.752;2023-09-19T04:37:39;99258.00;;;15.31;71.18
70343;BME280;57767;42.068;24.752;2023-09-19T04:38:43;99252.69;;;15.31;71.42
70343;BME280;57767;42.068;24.752;2023-09-19T04:39:47;99240.06;;;15.27;70.70
70343;BME280;57767;42.068;24.752;2023-09-19T04:40:49;99245.97;;;15.40;71.96
70343;BME280;57767;42.068;24.752;2023-09-19T04:41:51;99249.91;;;15.50;71.14
70343;BME280;57767;42.068;24.752;2023-09-19T04:42:54;99240.13;;;15.62;72.20
70343;BME280;57767;42.068;24.752;2023-09-19T04:43:58;99239.88;;;15.75;72.13
70343;BME280;57767;42.068;24.752;2023-09-19T04:45:00;99243.72;;;15.91;71.64
70343;BME280;57767;42.068;24.752;2023-09-19T04:46:02;99251.22;;;16.05;71.68
70343;BME280;57767;42.068;24.752;2023-09-19T04:47:07;99240.41;;;16.24;71.76
70343;BME280;57767;42.068;24.752;2023-09-19T04:48:09;99243.16;;;16.40;68.96
70343;BME280;57767;42.068;24.752;2023-09-19T04:49:12;99243.78;;;16.59;69.49
70343;BME280;57767;42.068;24.752;2023-09-19T04:50:17;99248.75;;;16.79;69.11
70343;BME280;57767;42.068;24.752;2023-09-19T04:51:18;99248.28;;;16.99;68.97
70343;BME280;57767;42.068;24.752;2023-09-19T04:52:22;99249.13;;;17.16;69.10
70343;BME280;57767;42.068;24.752;2023-09-19T04:53:23;99242.50;;;17.35;67.18
70343;BME280;57767;42.068;24.752;2023-09-19T04:54:25;99244.00;;;17.60;65.58
70343;BME280;57767;42.068;24.752;2023-09-19T04:55:28;99242.69;;;17.79;64.75
70343;BME280;57767;42.068;24.752;2023-09-19T04:56:32;99245.59;;;17.94;62.47
70343;BME280;57767;42.068;24.752;2023-09-19T04:57:33;99250.56;;;18.07;62.20
70343;BME280;57767;42.068;24.752;2023-09-19T04:58:35;99249.22;;;18.26;63.82
70343;BME280;57767;42.068;24.752;2023-09-19T04:59:37;99252.97;;;18.47;62.35
70343;BME280;57767;42.068;24.752;2023-09-19T05:00:38;99257.75;;;18.67;62.56
70343;BME280;57767;42.068;24.752;2023-09-19T05:01:40;99251.06;;;18.91;63.07
70343;BME280;57767;42.068;24.752;2023-09-19T05:02:43;99245.63;;;19.08;62.02
70343;BME280;57767;42.068;24.752;2023-09-19T05:03:44;99239.69;;;19.33;59.21
70343;BME280;57767;42.068;24.752;2023-09-19T05:04:46;99246.22;;;19.47;57.86
70343;BME280;57767;42.068;24.752;2023-09-19T05:05:48;99246.34;;;19.57;56.78
70343;BME280;57767;42.068;24.752;2023-09-19T05:06:50;99241.09;;;19.73;56.94
70343;BME280;57767;42.068;24.752;2023-09-19T05:07:52;99243.31;;;19.86;58.36
70343;BME280;57767;42.068;24.752;2023-09-19T05:08:57;99240.75;;;20.06;57.67
70343;BME280;57767;42.068;24.752;2023-09-19T05:09:59;99238.44;;;20.25;56.82
70343;BME280;57767;42.068;24.752;2023-09-19T05:11:04;99233.97;;;20.46;55.52
70343;BME280;57767;42.068;24.752;2023-09-19T05:12:06;99236.19;;;20.64;55.67
70343;BME280;57767;42.068;24.752;2023-09-19T05:13:07;99241.09;;;20.87;55.31
70343;BME280;57767;42.068;24.752;2023-09-19T05:14:09;99250.25;;;21.17;56.16
70343;BME280;57767;42.068;24.752;2023-09-19T05:15:11;99248.41;;;21.32;53.89
70343;BME280;57767;42.068;24.752;2023-09-19T05:16:15;99246.78;;;21.57;54.95
70343;BME280;57767;42.068;24.752;2023-09-19T05:17:17;99253.22;;;21.86;53.84
70343;BME280;57767;42.068;24.752;2023-09-19T05:18:19;99249.16;;;22.09;51.66
70343;BME280;57767;42.068;24.752;2023-09-19T05:19:21;99258.75;;;22.35;51.87
70343;BME280;57767;42.068;24.752;2023-09-19T05:20:23;99259.72;;;22.60;51.29
70343;BME280;57767;42.068;24.752;2023-09-19T05:21:31;99256.44;;;22.78;48.06
70343;BME280;57767;42.068;24.752;2023-09-19T05:22:34;99254.50;;;22.89;48.60
70343;BME280;57767;42.068;24.752;2023-09-19T05:23:36;99254.69;;;23.02;50.42
70343;BME280;57767;42.068;24.752;2023-09-19T05:24:38;99259.38;;;23.26;48.24
70343;BME280;57767;42.068;24.752;2023-09-19T05:25:40;99247.06;;;23.53;48.68
70343;BME280;57767;42.068;24.752;2023-09-19T05:26:42;99251.13;;;23.80;47.34
70343;BME280;57767;42.068;24.752;2023-09-19T05:27:44;99249.66;;;23.92;44.79
70343;BME280;57767;42.068;24.752;2023-09-19T05:28:46;99247.84;;;24.07;46.60
70343;BME280;57767;42.068;24.752;2023-09-19T05:29:49;99248.72;;;24.31;46.63
70343;BME280;57767;42.068;24.752;2023-09-19T05:30:53;99251.75;;;24.67;46.54
70343;BME280;57767;42.068;24.752;2023-09-19T05:31:55;99251.63;;;24.96;46.10
70343;BME280;57767;42.068;24.752;2023-09-19T05:32:57;99247.91;;;25.11;44.14
70343;BME280;57767;42.068;24.752;2023-09-19T05:33:59;99254.19;;;25.25;44.58
70343;BME280;57767;42.068;24.752;2023-09-19T05:35:02;99249.06;;;25.42;44.46
70343;BME280;57767;42.068;24.752;2023-09-19T05:36:04;99253.84;;;25.64;43.94
70343;BME280;57767;42.068;24.752;2023-09-19T05:37:06;99248.06;;;25.84;43.34
70343;BME280;57767;42.068;24.752;2023-09-19T05:38:09;99253.69;;;26.01;43.04
70343;BME280;57767;42.068;24.752;2023-09-19T05:39:13;99253.41;;;26.17;42.41
70343;BME280;57767;42.068;24.752;2023-09-19T05:40:15;99253.16;;;26.32;41.31
70343;BME280;57767;42.068;24.752;2023-09-19T05:41:17;99248.13;;;26.39;41.11
70343;BME280;57767;42.068;24.752;2023-09-19T05:42:19;99255.22;;;26.62;41.12
70343;BME280;57767;42.068;24.752;2023-09-19T05:43:21;99258.50;;;26.73;41.19
70343;BME280;57767;42.068;24.752;2023-09-19T05:44:23;99252.38;;;26.81;40.91
70343;BME280;57767;42.068;24.752;2023-09-19T05:45:25;99270.41;;;26.99;40.32
70343;BME280;57767;42.068;24.752;2023-09-19T05:46:27;99264.44;;;27.11;39.33
70343;BME280;57767;42.068;24.752;2023-09-19T05:47:31;99269.41;;;27.31;38.92